Time;durP1;ratioP1;P1;durP2;ratioP2;P2;SDS_P1;SDS_P2;PMS_P1;PMS_P2;Temp;Humidity;BMP_temperature;BMP_pressure;BME280_temperature;BME280_humidity;BME280_pressure;Samples;Min_cycle;Max_cycle;Signal;HPM_P1;HPM_P2
2022/06/02 00:01:48;;;;;;;;;;;22.70;90.50;;;;;;4824608;29;19940;-64
2022/06/02 00:04:20;;;;;;;;;;;22.70;90.50;;;;;;4841244;29;19939;-63
2022/06/02 00:07:03;;;;;;;;;;;22.70;90.50;;;;;;4845682;29;19928;-64
2022/06/02 00:09:33;;;;;;;;;;;22.70;90.50;;;;;;4843982;29;19932;-64
2022/06/02 00:12:18;;;;;;;;;;;22.70;90.60;;;;;;4853846;29;20546;-64
2022/06/02 00:15:04;;;;;;;;;;;22.70;90.60;;;;;;4860374;29;20404;-64
2022/06/02 00:17:45;;;;;;;;;;;22.70;90.60;;;;;;4843109;29;20388;-63
2022/06/02 00:20:14;;;;;;;;;;;22.70;90.70;;;;;;4845018;29;20305;-64
2022/06/02 00:22:54;;;;;;;;;;;22.70;90.60;;;;;;4824428;29;19936;-62
2022/06/02 00:25:27;;;;;;;;;;;22.70;90.60;;;;;;4838948;29;19944;-62
2022/06/02 00:28:18;;;;;;;;;;;22.70;90.60;;;;;;4839525;29;19949;-59
2022/06/02 00:30:54;;;;;;;;;;;22.70;90.70;;;;;;4848742;29;20304;-62
2022/06/02 00:33:32;;;;;;;;;;;22.70;90.70;;;;;;4872171;29;19936;-63
2022/06/02 00:36:07;;;;;;;;;;;22.70;90.70;;;;;;4861506;29;20316;-61
2022/06/02 00:38:36;;;;;;;;;;;22.60;90.70;;;;;;4853793;29;20433;-63
2022/06/02 00:41:16;;;;;;;;;;;22.70;90.70;;;;;;4832790;29;19940;-62
2022/06/02 00:43:55;;;;;;;;;;;22.60;90.80;;;;;;4845565;29;19939;-65
2022/06/02 00:46:38;;;;;;;;;;;22.60;90.80;;;;;;4835690;29;19932;-64
2022/06/02 00:49:05;;;;;;;;;;;22.60;90.80;;;;;;4840126;29;19949;-63
2022/06/02 00:51:41;;;;;;;;;;;22.60;90.80;;;;;;4840266;29;19929;-63
2022/06/02 01:00:08;;;;;;;;;;;22.70;90.80;;;;;;4845317;29;20424;-63
2022/06/02 01:02:40;;;;;;;;;;;22.60;90.80;;;;;;4843464;29;19940;-65
2022/06/02 01:05:07;;;;;;;;;;;22.60;90.80;;;;;;4840310;29;19940;-65
2022/06/02 01:07:42;;;;;;;;;;;22.60;90.80;;;;;;4868980;29;20377;-63
2022/06/02 01:10:15;;;;;;;;;;;22.60;90.90;;;;;;4862864;29;19936;-62
2022/06/02 01:12:57;;;;;;;;;;;22.60;90.80;;;;;;4855152;29;20411;-62
2022/06/02 01:15:30;;;;;;;;;;;22.60;90.80;;;;;;4845289;29;19939;-63
2022/06/02 01:18:14;;;;;;;;;;;22.60;90.90;;;;;;4864879;29;19932;-61
2022/06/02 01:20:57;;;;;;;;;;;22.60;90.90;;;;;;4843022;29;19932;-63
2022/06/02 01:23:33;;;;;;;;;;;22.60;91.20;;;;;;4860200;29;19936;-62
2022/06/02 01:26:03;;;;;;;;;;;22.60;90.90;;;;;;4863821;29;20411;-62
2022/06/02 01:28:37;;;;;;;;;;;22.60;90.90;;;;;;4848633;29;19943;-62
2022/06/02 01:31:10;;;;;;;;;;;22.60;91.00;;;;;;4835730;29;19932;-64
2022/06/02 01:33:47;;;;;;;;;;;22.60;91.00;;;;;;4843201;29;19959;-64
2022/06/02 01:36:14;;;;;;;;;;;22.50;91.00;;;;;;4846258;29;20316;-62
2022/06/02 01:38:47;;;;;;;;;;;22.50;91.00;;;;;;4863927;29;20014;-64
2022/06/02 01:41:14;;;;;;;;;;;22.60;91.00;;;;;;4850735;29;19979;-65
2022/06/02 01:44:02;;;;;;;;;;;22.50;91.00;;;;;;4848338;29;19935;-64
2022/06/02 01:46:45;;;;;;;;;;;22.50;91.00;;;;;;4857010;29;19932;-65
2022/06/02 01:49:17;;;;;;;;;;;22.50;91.00;;;;;;4846794;29;19932;-65
2022/06/02 01:51:45;;;;;;;;;;;22.50;91.00;;;;;;4841877;29;20322;-63
2022/06/02 01:54:22;;;;;;;;;;;22.50;91.00;;;;;;4842215;29;20420;-64
2022/06/02 01:56:57;;;;;;;;;;;22.50;91.00;;;;;;4840606;29;19936;-64
2022/06/02 01:59:37;;;;;;;;;;;22.50;91.00;;;;;;4838104;29;19940;-62
2022/06/02 02:02:11;;;;;;;;;;;22.50;91.10;;;;;;4848619;29;19930;-63
2022/06/02 02:04:53;;;;;;;;;;;22.50;91.20;;;;;;4845768;29;19939;-64
2022/06/02 02:07:44;;;;;;;;;;;22.50;91.20;;;;;;4850449;29;19932;-66
2022/06/02 02:10:29;;;;;;;;;;;22.50;91.20;;;;;;4852144;29;19929;-62
2022/06/02 02:12:56;;;;;;;;;;;22.50;91.20;;;;;;4839025;29;19943;-63
2022/06/02 02:15:32;;;;;;;;;;;22.50;91.20;;;;;;4849676;29;20004;-63
2022/06/02 02:18:07;;;;;;;;;;;22.50;91.20;;;;;;4840647;29;19939;-63
2022/06/02 02:21:03;;;;;;;;;;;22.50;91.20;;;;;;4846630;29;19932;-62
2022/06/02 02:23:30;;;;;;;;;;;22.40;91.20;;;;;;4835487;29;19939;-64
2022/06/02 02:26:11;;;;;;;;;;;22.40;91.20;;;;;;4843414;29;19933;-60
2022/06/02 02:28:57;;;;;;;;;;;22.40;91.20;;;;;;4837668;29;19929;-65
2022/06/02 02:31:25;;;;;;;;;;;22.40;91.30;;;;;;4851071;29;19928;-64
2022/06/02 02:34:08;;;;;;;;;;;22.40;91.30;;;;;;4830088;29;20006;-62
2022/06/02 02:36:51;;;;;;;;;;;22.40;91.30;;;;;;4842268;29;19932;-62
2022/06/02 02:39:38;;;;;;;;;;;22.40;91.30;;;;;;4838148;29;20705;-64
2022/06/02 02:42:11;;;;;;;;;;;22.40;91.40;;;;;;4845001;29;19933;-65
2022/06/02 02:45:14;;;;;;;;;;;22.40;91.40;;;;;;4849424;29;20007;-63
2022/06/02 02:48:01;;;;;;;;;;;22.40;91.40;;;;;;4779591;29;19930;-63
2022/06/02 02:50:31;;;;;;;;;;;22.40;91.40;;;;;;4790199;29;20317;-62
2022/06/02 02:53:09;;;;;;;;;;;22.40;91.40;;;;;;4840688;29;19940;-63
2022/06/02 02:55:56;;;;;;;;;;;22.40;91.40;;;;;;4847040;29;19936;-65
2022/06/02 02:58:27;;;;;;;;;;;22.40;91.40;;;;;;4850093;29;19936;-64
2022/06/02 03:01:00;;;;;;;;;;;22.40;91.50;;;;;;4853668;29;19948;-63
2022/06/02 03:03:31;;;;;;;;;;;22.40;91.50;;;;;;4859549;29;19928;-64
2022/06/02 03:06:24;;;;;;;;;;;22.30;91.50;;;;;;4853561;29;20389;-61
2022/06/02 03:09:02;;;;;;;;;;;22.40;91.50;;;;;;4858095;29;19932;-64
2022/06/02 03:11:48;;;;;;;;;;;22.40;91.50;;;;;;4850144;29;19932;-62
2022/06/02 03:14:39;;;;;;;;;;;22.40;91.50;;;;;;4851403;29;19954;-62
2022/06/02 03:17:09;;;;;;;;;;;22.40;91.70;;;;;;4822699;29;20393;-63
2022/06/02 03:19:39;;;;;;;;;;;22.30;91.50;;;;;;4844922;29;19932;-63
2022/06/02 03:22:24;;;;;;;;;;;22.30;91.50;;;;;;4849249;29;19933;-64
2022/06/02 03:25:04;;;;;;;;;;;22.30;91.50;;;;;;4844763;29;20396;-64
2022/06/02 03:27:32;;;;;;;;;;;22.30;91.50;;;;;;4848299;29;19932;-62
2022/06/02 03:30:13;;;;;;;;;;;22.30;91.50;;;;;;4840880;29;19929;-64
2022/06/02 03:32:47;;;;;;;;;;;22.30;91.60;;;;;;4852993;29;19952;-65
2022/06/02 03:35:27;;;;;;;;;;;22.30;91.50;;;;;;4853239;29;19947;-64
2022/06/02 03:37:54;;;;;;;;;;;22.30;91.60;;;;;;4838173;29;20162;-63
2022/06/02 03:40:24;;;;;;;;;;;22.30;91.60;;;;;;4856803;29;20423;-63
2022/06/02 03:42:51;;;;;;;;;;;22.20;91.60;;;;;;4833125;29;19932;-64
2022/06/02 03:45:21;;;;;;;;;;;22.30;91.60;;;;;;4848957;29;19928;-62
2022/06/02 03:47:57;;;;;;;;;;;22.30;91.70;;;;;;4849864;29;20292;-63
2022/06/02 03:50:44;;;;;;;;;;;22.20;91.60;;;;;;4852651;29;20439;-63
2022/06/02 03:53:17;;;;;;;;;;;22.30;91.70;;;;;;4856345;29;19940;-61
2022/06/02 03:55:44;;;;;;;;;;;22.30;91.90;;;;;;4857295;29;19947;-63
2022/06/02 03:58:20;;;;;;;;;;;22.20;91.70;;;;;;4849089;29;19932;-64
2022/06/02 04:00:56;;;;;;;;;;;22.20;91.70;;;;;;4867147;29;20427;-64
2022/06/02 04:03:31;;;;;;;;;;;22.20;91.80;;;;;;4812783;29;19944;-68
2022/06/02 04:06:25;;;;;;;;;;;22.30;91.90;;;;;;4852074;29;19937;-66
2022/06/02 04:09:02;;;;;;;;;;;22.30;91.90;;;;;;4840841;29;19932;-64
2022/06/02 04:14:32;;;;;;;;;;;22.30;91.80;;;;;;4866576;29;19942;-64
2022/06/02 04:17:04;;;;;;;;;;;22.30;91.80;;;;;;4854511;29;20335;-64
2022/06/02 04:22:41;;;;;;;;;;;22.30;91.80;;;;;;4853501;29;19928;-65
2022/06/02 04:25:20;;;;;;;;;;;22.30;91.90;;;;;;4849055;29;19929;-64
2022/06/02 04:27:52;;;;;;;;;;;22.30;92.00;;;;;;4851726;29;19928;-64
2022/06/02 04:30:20;;;;;;;;;;;22.30;91.90;;;;;;4852534;29;20396;-67
2022/06/02 04:33:03;;;;;;;;;;;22.30;91.90;;;;;;4854162;29;19928;-66
2022/06/02 04:35:43;;;;;;;;;;;22.30;91.90;;;;;;4834157;29;19932;-62
2022/06/02 04:38:28;;;;;;;;;;;22.40;91.80;;;;;;4858963;29;19932;-69
2022/06/02 04:41:02;;;;;;;;;;;22.40;91.90;;;;;;4857813;29;19932;-65
2022/06/02 04:43:50;;;;;;;;;;;22.40;92.00;;;;;;4855013;29;19932;-68
2022/06/02 04:46:40;;;;;;;;;;;22.40;92.00;;;;;;4851286;29;19928;-69
2022/06/02 04:49:14;;;;;;;;;;;22.40;92.00;;;;;;4824929;29;19942;-69
2022/06/02 04:51:47;;;;;;;;;;;22.40;92.00;;;;;;4863090;29;20003;-67
2022/06/02 04:54:15;;;;;;;;;;;22.40;92.00;;;;;;4847518;29;19940;-69
2022/06/02 04:56:56;;;;;;;;;;;22.40;91.90;;;;;;4854865;29;19928;-64
2022/06/02 04:59:43;;;;;;;;;;;22.50;92.00;;;;;;4843301;29;19932;-65
2022/06/02 05:02:39;;;;;;;;;;;22.40;91.90;;;;;;4846839;29;19932;-65
2022/06/02 05:05:15;;;;;;;;;;;22.50;91.90;;;;;;4804901;29;19960;-63
2022/06/02 05:08:01;;;;;;;;;;;22.50;91.90;;;;;;4851148;29;19954;-67
2022/06/02 05:10:38;;;;;;;;;;;22.50;92.00;;;;;;4854881;29;19940;-64
2022/06/02 05:13:24;;;;;;;;;;;22.50;92.30;;;;;;4847971;29;19936;-65
2022/06/02 05:15:57;;;;;;;;;;;22.40;91.90;;;;;;4855281;29;19943;-66
2022/06/02 05:18:27;;;;;;;;;;;22.40;92.00;;;;;;4860533;29;19951;-65
2022/06/02 05:21:13;;;;;;;;;;;22.40;92.00;;;;;;4851018;29;19940;-66
2022/06/02 05:23:55;;;;;;;;;;;22.40;92.00;;;;;;4865119;29;19932;-65
2022/06/02 05:26:28;;;;;;;;;;;22.40;92.10;;;;;;4856883;29;19939;-67
2022/06/02 05:29:04;;;;;;;;;;;22.40;92.00;;;;;;4843628;29;19947;-63
2022/06/02 05:31:50;;;;;;;;;;;22.40;92.10;;;;;;4849650;29;19928;-63
2022/06/02 05:34:36;;;;;;;;;;;22.40;92.10;;;;;;4852449;29;19935;-65
2022/06/02 05:37:11;;;;;;;;;;;22.40;92.10;;;;;;4850014;29;19948;-62
2022/06/02 05:40:05;;;;;;;;;;;22.40;92.30;;;;;;4848719;29;19936;-65
2022/06/02 05:42:45;;;;;;;;;;;22.40;92.10;;;;;;4831979;29;19936;-63
2022/06/02 05:45:21;;;;;;;;;;;22.40;92.10;;;;;;4849269;29;19928;-64
2022/06/02 05:48:02;;;;;;;;;;;22.40;92.20;;;;;;4848985;29;19935;-64
2022/06/02 05:50:36;;;;;;;;;;;22.50;92.20;;;;;;4867868;29;19939;-62
2022/06/02 05:53:16;;;;;;;;;;;22.20;84.40;;;;;;4852267;29;19928;-57
2022/06/02 05:56:03;;;;;;;;;;;21.70;83.10;;;;;;4859521;29;19936;-61
2022/06/02 05:58:45;;;;;;;;;;;21.60;87.50;;;;;;4856137;29;19932;-58
2022/06/02 06:01:23;;;;;;;;;;;21.70;87.30;;;;;;4852325;29;20293;-58
2022/06/02 06:03:50;;;;;;;;;;;21.90;86.60;;;;;;4851822;29;19979;-60
2022/06/02 06:06:36;;;;;;;;;;;22.00;86.70;;;;;;4858069;29;19936;-60
2022/06/02 06:09:04;;;;;;;;;;;22.20;86.90;;;;;;4852787;29;19932;-61
2022/06/02 06:11:49;;;;;;;;;;;22.20;87.10;;;;;;4852935;29;19933;-55
2022/06/02 06:14:37;;;;;;;;;;;22.30;87.40;;;;;;4856181;29;19928;-63
2022/06/02 06:17:15;;;;;;;;;;;22.30;87.60;;;;;;4839629;29;19943;-62
2022/06/02 06:19:56;;;;;;;;;;;22.40;88.10;;;;;;4858192;29;19939;-63
2022/06/02 06:22:44;;;;;;;;;;;22.40;88.50;;;;;;4851874;29;19928;-64
2022/06/02 06:25:29;;;;;;;;;;;22.40;88.80;;;;;;4843979;29;19935;-62
2022/06/02 06:28:05;;;;;;;;;;;22.40;89.30;;;;;;4857387;29;19927;-58
2022/06/02 06:30:51;;;;;;;;;;;22.40;89.50;;;;;;4835576;29;19928;-63
2022/06/02 06:33:37;;;;;;;;;;;22.40;89.70;;;;;;4845518;29;19939;-63
2022/06/02 06:36:04;;;;;;;;;;;22.50;90.00;;;;;;4849237;29;20373;-65
2022/06/02 06:38:50;;;;;;;;;;;22.50;90.10;;;;;;4835487;29;19992;-63
2022/06/02 06:41:27;;;;;;;;;;;22.40;90.10;;;;;;4852835;29;20316;-64
2022/06/02 06:44:08;;;;;;;;;;;22.40;90.10;;;;;;4856192;29;20320;-63
2022/06/02 06:46:40;;;;;;;;;;;22.30;90.10;;;;;;4856330;29;20439;-63
2022/06/02 06:49:21;;;;;;;;;;;22.40;90.50;;;;;;4850863;29;20425;-62
2022/06/02 06:51:57;;;;;;;;;;;22.40;90.60;;;;;;4844532;29;20317;-61
2022/06/02 06:54:43;;;;;;;;;;;22.50;90.60;;;;;;4853170;29;19932;-62
2022/06/02 06:57:12;;;;;;;;;;;22.50;90.70;;;;;;4847751;29;20271;-64
2022/06/02 06:59:49;;;;;;;;;;;22.50;90.70;;;;;;4847318;29;19944;-63
2022/06/02 07:02:28;;;;;;;;;;;22.50;90.80;;;;;;4844576;29;19936;-63
2022/06/02 07:05:14;;;;;;;;;;;22.50;90.90;;;;;;4846499;29;19936;-65
2022/06/02 07:07:44;;;;;;;;;;;22.50;91.10;;;;;;4849551;29;20289;-63
2022/06/02 07:10:35;;;;;;;;;;;22.60;91.40;;;;;;4836967;29;19928;-61
2022/06/02 07:13:18;;;;;;;;;;;22.50;91.70;;;;;;4842299;29;19948;-65
2022/06/02 07:16:06;;;;;;;;;;;22.50;92.00;;;;;;4828190;29;20407;-65
2022/06/02 07:18:42;;;;;;;;;;;22.60;92.10;;;;;;4853095;29;19939;-60
2022/06/02 07:21:12;;;;;;;;;;;22.60;92.90;;;;;;4852477;29;19943;-64
2022/06/02 07:24:03;;;;;;;;;;;22.60;93.30;;;;;;4851815;29;20593;-65
2022/06/02 07:26:38;;;;;;;;;;;22.60;93.70;;;;;;4840453;29;19939;-63
2022/06/02 07:29:23;;;;;;;;;;;22.60;94.20;;;;;;4851111;29;19932;-63
2022/06/02 07:32:02;;;;;;;;;;;22.60;94.50;;;;;;4853644;29;19932;-63
2022/06/02 07:34:39;;;;;;;;;;;22.60;95.00;;;;;;4851980;29;19932;-65
2022/06/02 07:37:19;;;;;;;;;;;22.60;95.50;;;;;;4851366;29;19936;-64
2022/06/02 07:40:05;;;;;;;;;;;22.60;96.30;;;;;;4838261;29;19943;-66
2022/06/02 07:42:35;;;;;;;;;;;22.60;98.30;;;;;;4848481;29;19952;-64
2022/06/02 07:45:35;;;;;;;;;;;22.70;99.10;;;;;;4851252;29;20388;-64
2022/06/02 07:48:05;;;;;;;;;;;22.70;99.50;;;;;;4815447;29;20260;-64
2022/06/02 07:50:34;;;;;;;;;;;22.80;99.60;;;;;;4847453;29;19929;-62
2022/06/02 07:53:05;;;;;;;;;;;22.80;99.60;;;;;;4832146;29;20392;-62
2022/06/02 07:55:38;;;;;;;;;;;22.80;99.80;;;;;;4851692;29;19937;-63
2022/06/02 07:58:23;;;;;;;;;;;22.80;99.90;;;;;;4842586;29;19936;-60
2022/06/02 08:00:54;;;;;;;;;;;22.80;99.90;;;;;;4842736;29;19933;-62
2022/06/02 08:03:21;;;;;;;;;;;22.70;98.80;;;;;;4852810;29;20038;-61
2022/06/02 08:05:55;;;;;;;;;;;22.70;98.40;;;;;;4838505;29;19932;-61
2022/06/02 08:08:34;;;;;;;;;;;22.80;98.10;;;;;;4851487;29;20431;-62
2022/06/02 08:11:19;;;;;;;;;;;22.80;97.50;;;;;;4837747;29;19932;-60
2022/06/02 08:14:05;;;;;;;;;;;22.80;97.00;;;;;;4837366;29;19936;-59
2022/06/02 08:16:48;;;;;;;;;;;22.80;96.90;;;;;;4855556;29;19943;-62
2022/06/02 08:19:28;;;;;;;;;;;22.80;96.40;;;;;;4853319;29;19939;-61
2022/06/02 08:22:01;;;;;;;;;;;22.80;96.20;;;;;;4818088;29;19932;-63
2022/06/02 08:24:28;;;;;;;;;;;22.80;96.10;;;;;;4840847;29;19980;-61
2022/06/02 08:27:20;;;;;;;;;;;22.80;96.10;;;;;;4856283;29;20011;-60
2022/06/02 08:30:04;;;;;;;;;;;22.90;96.00;;;;;;4853591;29;19939;-62
2022/06/02 08:32:50;;;;;;;;;;;22.80;96.00;;;;;;4851446;29;20364;-60
2022/06/02 08:35:37;;;;;;;;;;;22.90;95.90;;;;;;4850826;29;19936;-59
2022/06/02 08:38:23;;;;;;;;;;;22.90;95.80;;;;;;4845195;29;19940;-60
2022/06/02 08:41:29;;;;;;;;;;;22.90;95.80;;;;;;4831693;29;19939;-59
2022/06/02 08:44:16;;;;;;;;;;;22.90;95.70;;;;;;4846186;29;19936;-61
2022/06/02 08:46:44;;;;;;;;;;;22.80;95.60;;;;;;4853780;29;20376;-63
2022/06/02 08:49:15;;;;;;;;;;;22.90;95.60;;;;;;4840196;29;19929;-61
2022/06/02 08:52:01;;;;;;;;;;;22.90;95.50;;;;;;4839417;29;19932;-64
2022/06/02 08:54:40;;;;;;;;;;;22.80;95.40;;;;;;4848631;29;20012;-65
2022/06/02 08:57:10;;;;;;;;;;;22.80;95.40;;;;;;4850093;29;19936;-63
2022/06/02 08:59:52;;;;;;;;;;;22.80;95.60;;;;;;4841484;29;20428;-66
2022/06/02 09:02:38;;;;;;;;;;;22.80;95.60;;;;;;4839970;29;19928;-62
2022/06/02 09:05:12;;;;;;;;;;;22.80;95.60;;;;;;4853366;29;20408;-62
2022/06/02 09:07:51;;;;;;;;;;;22.80;95.50;;;;;;4851900;29;20422;-64
2022/06/02 09:10:37;;;;;;;;;;;22.80;95.50;;;;;;4854597;29;19936;-62
2022/06/02 09:13:10;;;;;;;;;;;22.80;95.40;;;;;;4850099;29;20427;-64
2022/06/02 09:15:50;;;;;;;;;;;22.90;95.50;;;;;;4855220;29;19932;-61
2022/06/02 09:18:24;;;;;;;;;;;22.80;95.40;;;;;;4853428;29;19935;-63
2022/06/02 09:21:06;;;;;;;;;;;22.80;95.30;;;;;;4856005;29;19955;-60
2022/06/02 09:23:36;;;;;;;;;;;22.80;95.40;;;;;;4863089;29;19936;-60
2022/06/02 09:26:22;;;;;;;;;;;22.80;95.40;;;;;;4860182;29;19928;-60
2022/06/02 09:28:52;;;;;;;;;;;22.80;95.40;;;;;;4852691;29;19932;-59
2022/06/02 09:31:45;;;;;;;;;;;22.80;95.40;;;;;;4847193;29;19956;-64
2022/06/02 09:34:19;;;;;;;;;;;22.80;95.30;;;;;;4856616;29;19932;-62
2022/06/02 09:36:59;;;;;;;;;;;22.80;95.30;;;;;;4850821;29;20409;-60
2022/06/02 09:39:35;;;;;;;;;;;22.80;95.30;;;;;;4837717;29;19939;-62
2022/06/02 09:42:21;;;;;;;;;;;22.90;95.30;;;;;;4847809;29;20931;-61
2022/06/02 09:45:00;;;;;;;;;;;22.90;95.30;;;;;;4845041;29;19928;-62
2022/06/02 09:47:46;;;;;;;;;;;22.80;95.20;;;;;;4847931;29;19936;-61
2022/06/02 09:50:34;;;;;;;;;;;22.90;95.20;;;;;;4843172;29;19932;-63
2022/06/02 09:53:01;;;;;;;;;;;22.80;95.00;;;;;;4801881;29;20011;-64
2022/06/02 09:55:36;;;;;;;;;;;22.80;95.00;;;;;;4850467;29;19936;-64
2022/06/02 09:58:21;;;;;;;;;;;22.80;94.90;;;;;;4846694;29;19932;-60
2022/06/02 10:01:12;;;;;;;;;;;22.70;94.80;;;;;;4840763;29;19955;-62
2022/06/02 10:03:57;;;;;;;;;;;22.70;94.70;;;;;;4822172;29;19932;-62
2022/06/02 10:06:44;;;;;;;;;;;22.70;94.60;;;;;;4854736;29;19933;-64
2022/06/02 10:09:14;;;;;;;;;;;22.70;94.60;;;;;;4840789;29;19928;-62
2022/06/02 10:15:07;;;;;;;;;;;22.70;94.40;;;;;;4846683;29;19932;-61
2022/06/02 10:17:34;;;;;;;;;;;22.70;94.30;;;;;;4849558;29;19932;-64
2022/06/02 10:20:06;;;;;;;;;;;22.70;94.30;;;;;;4854386;29;19944;-66
2022/06/02 10:22:40;;;;;;;;;;;22.80;94.20;;;;;;4857838;29;20059;-60
2022/06/02 10:25:22;;;;;;;;;;;22.80;94.20;;;;;;4858053;29;19939;-60
2022/06/02 10:28:13;;;;;;;;;;;22.80;94.10;;;;;;4849238;29;19932;-59
2022/06/02 10:31:07;;;;;;;;;;;22.70;94.00;;;;;;4820194;29;19932;-62
2022/06/02 10:33:35;;;;;;;;;;;22.70;94.00;;;;;;4845611;29;19932;-60
2022/06/02 10:36:11;;;;;;;;;;;22.70;94.00;;;;;;4852197;29;19933;-63
2022/06/02 10:38:58;;;;;;;;;;;22.70;93.70;;;;;;4847070;29;19932;-60
2022/06/02 10:41:45;;;;;;;;;;;22.70;93.60;;;;;;4845073;29;19932;-63
2022/06/02 10:44:14;;;;;;;;;;;22.70;93.40;;;;;;4851690;29;19943;-60
2022/06/02 10:46:41;;;;;;;;;;;22.70;93.40;;;;;;4858121;29;19939;-65
2022/06/02 10:49:26;;;;;;;;;;;22.60;93.40;;;;;;4842561;29;20297;-61
2022/06/02 10:52:13;;;;;;;;;;;22.70;93.20;;;;;;4848859;29;19947;-64
2022/06/02 10:54:49;;;;;;;;;;;22.70;92.50;;;;;;4851216;29;19932;-59
2022/06/02 10:57:37;;;;;;;;;;;22.60;91.40;;;;;;4850917;29;19932;-63
2022/06/02 11:00:15;;;;;;;;;;;22.60;90.70;;;;;;4853281;29;19942;-64
2022/06/02 11:03:13;;;;;;;;;;;22.70;90.30;;;;;;4846438;29;19931;-69
2022/06/02 11:05:59;;;;;;;;;;;22.60;89.10;;;;;;4848231;29;19937;-65
2022/06/02 11:08:45;;;;;;;;;;;22.60;88.10;;;;;;4850140;29;19929;-63
2022/06/02 11:11:28;;;;;;;;;;;22.60;87.30;;;;;;4859169;29;19935;-61
2022/06/02 11:14:13;;;;;;;;;;;22.60;87.00;;;;;;4870399;29;19939;-58
2022/06/02 11:17:01;;;;;;;;;;;22.60;86.20;;;;;;4869698;29;19939;-63
2022/06/02 11:19:43;;;;;;;;;;;22.60;86.40;;;;;;4873867;29;20196;-61
2022/06/02 11:22:23;;;;;;;;;;;22.60;85.80;;;;;;4854728;29;19931;-60
2022/06/02 11:25:06;;;;;;;;;;;22.60;85.50;;;;;;4859635;29;19932;-60
2022/06/02 11:27:40;;;;;;;;;;;22.60;85.00;;;;;;4866955;29;19939;-63
2022/06/02 11:30:27;;;;;;;;;;;22.60;84.70;;;;;;4870765;29;19932;-63
2022/06/02 11:33:13;;;;;;;;;;;22.60;83.60;;;;;;4871208;29;19931;-61
2022/06/02 11:35:44;;;;;;;;;;;22.60;82.90;;;;;;4869580;29;20403;-63
2022/06/02 11:38:29;;;;;;;;;;;22.60;82.40;;;;;;4870894;29;19928;-64
2022/06/02 11:41:02;;;;;;;;;;;22.60;81.70;;;;;;4865853;29;19938;-65
2022/06/02 11:43:37;;;;;;;;;;;22.50;81.10;;;;;;4870919;29;19931;-64
2022/06/02 11:46:08;;;;;;;;;;;22.50;80.80;;;;;;4874479;29;19958;-62
2022/06/02 11:48:38;;;;;;;;;;;22.60;80.70;;;;;;4868899;29;19931;-64
2022/06/02 11:51:24;;;;;;;;;;;22.60;80.60;;;;;;4877524;29;20316;-66
2022/06/02 11:54:10;;;;;;;;;;;22.60;80.70;;;;;;4859974;29;20009;-65
2022/06/02 11:56:37;;;;;;;;;;;22.50;80.70;;;;;;4856251;29;19939;-60
2022/06/02 11:59:23;;;;;;;;;;;22.50;80.90;;;;;;4872586;29;19932;-63
2022/06/02 12:02:09;;;;;;;;;;;22.60;81.00;;;;;;4875146;29;19942;-61
2022/06/02 12:04:39;;;;;;;;;;;22.60;81.00;;;;;;4863223;29;19939;-58
2022/06/02 12:07:12;;;;;;;;;;;22.50;80.60;;;;;;4880149;29;19939;-62
2022/06/02 12:09:55;;;;;;;;;;;22.50;80.30;;;;;;4880991;29;19936;-63
2022/06/02 12:12:41;;;;;;;;;;;22.60;79.80;;;;;;4882177;29;19927;-60
2022/06/02 12:15:27;;;;;;;;;;;22.50;79.60;;;;;;4862724;29;19928;-61
2022/06/02 12:18:11;;;;;;;;;;;22.50;79.40;;;;;;4881359;29;20517;-61
2022/06/02 12:20:47;;;;;;;;;;;22.50;79.20;;;;;;4874793;29;19951;-57
2022/06/02 12:23:33;;;;;;;;;;;22.60;79.70;;;;;;4872054;29;19931;-57
2022/06/02 12:26:00;;;;;;;;;;;22.60;79.20;;;;;;4875013;29;19936;-59
2022/06/02 12:28:28;;;;;;;;;;;22.60;79.30;;;;;;4868969;29;19932;-58
2022/06/02 12:30:57;;;;;;;;;;;22.70;79.70;;;;;;4872516;29;19939;-59
2022/06/02 12:33:45;;;;;;;;;;;22.70;80.00;;;;;;4884487;29;19944;-60
2022/06/02 12:36:27;;;;;;;;;;;22.70;80.70;;;;;;4879416;29;19932;-59
2022/06/02 12:39:04;;;;;;;;;;;22.70;81.10;;;;;;4880186;29;20276;-61
2022/06/02 12:41:55;;;;;;;;;;;22.70;81.40;;;;;;4889779;29;19936;-63
2022/06/02 12:44:22;;;;;;;;;;;22.70;81.90;;;;;;4864857;29;19935;-60
2022/06/02 12:46:49;;;;;;;;;;;22.70;82.20;;;;;;4882191;29;20423;-61
2022/06/02 12:49:30;;;;;;;;;;;22.80;82.50;;;;;;4873800;29;19931;-62
2022/06/02 12:51:57;;;;;;;;;;;22.80;82.70;;;;;;4872564;29;19927;-62
2022/06/02 12:54:47;;;;;;;;;;;22.80;82.70;;;;;;4872530;29;20475;-59
2022/06/02 12:57:28;;;;;;;;;;;22.80;82.90;;;;;;4857676;29;19932;-63
2022/06/02 13:00:05;;;;;;;;;;;22.80;83.20;;;;;;4870193;29;19932;-62
2022/06/02 13:02:35;;;;;;;;;;;22.90;83.40;;;;;;4870029;29;19928;-61
2022/06/02 13:05:39;;;;;;;;;;;22.90;83.60;;;;;;4873230;29;19935;-60
2022/06/02 13:08:30;;;;;;;;;;;22.90;83.50;;;;;;4798609;29;19940;-57
2022/06/02 13:11:21;;;;;;;;;;;23.00;83.50;;;;;;4864256;29;20372;-57
2022/06/02 13:13:57;;;;;;;;;;;23.00;83.60;;;;;;4870778;29;19935;-58
2022/06/02 13:16:42;;;;;;;;;;;23.00;83.70;;;;;;4866278;29;20272;-56
2022/06/02 13:19:36;;;;;;;;;;;23.10;83.90;;;;;;4852037;29;20596;-56
2022/06/02 13:22:42;;;;;;;;;;;23.00;83.70;;;;;;4870378;29;19935;-53
2022/06/02 13:25:24;;;;;;;;;;;23.10;83.70;;;;;;4816415;29;20393;-59
2022/06/02 13:28:03;;;;;;;;;;;23.10;83.80;;;;;;4819541;29;19933;-57
2022/06/02 13:30:49;;;;;;;;;;;23.20;84.00;;;;;;4857336;29;20645;-60
2022/06/02 13:33:22;;;;;;;;;;;23.20;84.00;;;;;;4865549;29;20399;-61
2022/06/02 13:35:58;;;;;;;;;;;23.30;84.20;;;;;;4861911;29;20424;-57
2022/06/02 13:38:37;;;;;;;;;;;23.30;84.20;;;;;;4865968;29;20416;-55
2022/06/02 13:41:20;;;;;;;;;;;23.40;84.20;;;;;;4869800;29;19939;-58
2022/06/02 13:43:47;;;;;;;;;;;23.40;84.20;;;;;;4852610;29;19928;-61
2022/06/02 13:46:20;;;;;;;;;;;23.50;84.40;;;;;;4869381;29;19939;-58
2022/06/02 13:49:06;;;;;;;;;;;23.50;84.40;;;;;;4869910;29;19935;-59
2022/06/02 13:51:52;;;;;;;;;;;23.60;84.50;;;;;;4868881;29;20426;-57
2022/06/02 14:00:10;;;;;;;;;;;23.70;85.50;;;;;;4866196;29;19935;-62
2022/06/02 14:02:56;;;;;;;;;;;23.80;85.80;;;;;;4872140;29;19932;-58
2022/06/02 14:05:32;;;;;;;;;;;23.80;86.00;;;;;;4866899;29;19935;-59
2022/06/02 14:08:24;;;;;;;;;;;23.90;86.30;;;;;;4855438;29;19939;-60
2022/06/02 14:11:10;;;;;;;;;;;23.90;86.30;;;;;;4864405;29;20269;-58
2022/06/02 14:13:56;;;;;;;;;;;23.90;86.40;;;;;;4867154;29;19932;-60
2022/06/02 14:16:29;;;;;;;;;;;23.90;86.40;;;;;;4865746;29;19951;-54
2022/06/02 14:19:11;;;;;;;;;;;23.90;86.60;;;;;;4850784;29;19928;-61
2022/06/02 14:21:45;;;;;;;;;;;24.00;86.80;;;;;;4865716;29;19936;-59
2022/06/02 14:24:21;;;;;;;;;;;24.00;86.20;;;;;;4869898;29;19932;-56
2022/06/02 14:27:06;;;;;;;;;;;24.00;85.10;;;;;;4872103;29;19951;-58
2022/06/02 14:29:52;;;;;;;;;;;24.10;84.40;;;;;;4870504;29;20403;-58
2022/06/02 14:32:20;;;;;;;;;;;24.10;83.30;;;;;;4870612;29;19932;-57
2022/06/02 14:35:06;;;;;;;;;;;24.10;81.50;;;;;;4873876;29;19934;-61
2022/06/02 14:37:45;;;;;;;;;;;24.10;80.50;;;;;;4874500;29;19928;-57
2022/06/02 14:40:17;;;;;;;;;;;24.20;79.30;;;;;;4873822;29;19943;-57
2022/06/02 14:43:03;;;;;;;;;;;24.20;78.30;;;;;;4865324;29;19932;-56
2022/06/02 14:45:36;;;;;;;;;;;24.10;77.10;;;;;;4868829;29;20189;-58
2022/06/02 14:48:12;;;;;;;;;;;24.10;75.90;;;;;;4863430;29;19958;-60
2022/06/02 14:50:42;;;;;;;;;;;24.10;75.20;;;;;;4868206;29;19939;-58
2022/06/02 14:53:31;;;;;;;;;;;24.20;74.80;;;;;;4868033;29;19932;-57
2022/06/02 14:56:07;;;;;;;;;;;24.20;74.40;;;;;;4866830;29;20368;-62
2022/06/02 14:58:34;;;;;;;;;;;24.30;74.20;;;;;;4868615;29;19939;-58
2022/06/02 15:01:14;;;;;;;;;;;24.30;74.20;;;;;;4863188;29;19932;-60
2022/06/02 15:04:01;;;;;;;;;;;24.30;74.10;;;;;;4868979;29;19936;-58
2022/06/02 15:06:28;;;;;;;;;;;24.20;73.80;;;;;;4854823;29;19936;-59
2022/06/02 15:09:20;;;;;;;;;;;24.30;73.50;;;;;;4868417;29;19935;-59
2022/06/02 15:12:05;;;;;;;;;;;24.40;73.40;;;;;;4871579;29;19932;-58
2022/06/02 15:14:36;;;;;;;;;;;24.50;74.00;;;;;;4856030;29;19938;-58
2022/06/02 15:17:21;;;;;;;;;;;24.50;73.20;;;;;;4875115;29;19954;-59
2022/06/02 15:20:07;;;;;;;;;;;24.50;73.00;;;;;;4860009;29;19939;-55
2022/06/02 15:22:55;;;;;;;;;;;24.50;73.30;;;;;;4876596;29;19958;-57
2022/06/02 15:25:37;;;;;;;;;;;24.50;73.30;;;;;;4874948;29;19931;-57
2022/06/02 15:28:07;;;;;;;;;;;24.50;73.20;;;;;;4873935;29;19932;-55
2022/06/02 15:30:43;;;;;;;;;;;24.60;73.70;;;;;;4871270;29;19931;-60
2022/06/02 15:33:16;;;;;;;;;;;24.70;74.40;;;;;;4868760;29;19932;-61
2022/06/02 15:36:02;;;;;;;;;;;24.70;74.80;;;;;;4875574;29;19935;-59
2022/06/02 15:38:32;;;;;;;;;;;24.70;75.30;;;;;;4876698;29;19932;-61
2022/06/02 15:41:12;;;;;;;;;;;24.80;75.70;;;;;;4875084;29;19931;-59
2022/06/02 15:43:54;;;;;;;;;;;24.80;75.90;;;;;;4858122;29;19939;-60
2022/06/02 15:46:27;;;;;;;;;;;24.80;76.10;;;;;;4872434;29;20357;-62